Time;durP1;ratioP1;P1;durP2;ratioP2;P2;SDS_P1;SDS_P2;PMS_P1;PMS_P2;Temp;Humidity;BMP_temperature;BMP_pressure;BME280_temperature;BME280_humidity;BME280_pressure;Samples;Min_cycle;Max_cycle;Signal;HPM_P1;HPM_P2
2021/05/20 00:00:07;;;;;;;11.98;3.35;;;;;;;7.87;72.84;100205.23;125565;1099;26265;-58
2021/05/20 00:03:00;;;;;;;14.10;3.70;;;;;;;7.90;73.10;100206.32;125499;1104;22875;-57
2021/05/20 00:05:33;;;;;;;13.33;4.03;;;;;;;7.93;73.14;100208.16;125487;1099;22767;-59
2021/05/20 00:08:03;;;;;;;10.05;3.90;;;;;;;7.95;73.42;100203.69;125521;1104;22820;-58
2021/05/20 00:10:34;;;;;;;17.70;6.03;;;;;;;7.95;73.66;100205.69;125478;1099;26034;-59
2021/05/20 00:13:05;;;;;;;16.20;6.00;;;;;;;7.97;73.71;100206.00;125591;1104;22760;-59
2021/05/20 00:15:36;;;;;;;15.77;6.17;;;;;;;7.98;73.80;100205.56;125525;1104;22993;-59
2021/05/20 00:18:07;;;;;;;15.95;5.45;;;;;;;7.98;73.73;100207.56;125447;1100;22748;-60
2021/05/20 00:20:37;;;;;;;17.40;5.43;;;;;;;8.00;73.96;100211.44;125520;1104;22780;-56
2021/05/20 00:23:07;;;;;;;14.73;4.83;;;;;;;8.01;74.26;100218.52;125546;1100;26327;-58
2021/05/20 00:25:36;;;;;;;13.80;5.30;;;;;;;8.02;74.07;100222.86;125475;1104;22780;-58
2021/05/20 00:28:06;;;;;;;12.65;4.85;;;;;;;8.05;74.38;100223.92;125449;1104;22766;-59
2021/05/20 00:30:37;;;;;;;16.08;5.98;;;;;;;8.07;74.39;100218.67;125504;1104;22766;-58
2021/05/20 00:33:06;;;;;;;;;;;;;;;8.08;74.77;100214.67;125499;1105;22775;-56
2021/05/20 00:35:35;;;;;;;11.63;4.20;;;;;;;8.09;74.54;100218.98;125528;1104;24114;-56
2021/05/20 00:38:09;;;;;;;11.20;4.43;;;;;;;8.09;74.68;100222.54;125472;1099;27129;-58
2021/05/20 00:40:41;;;;;;;13.90;4.50;;;;;;;8.12;75.02;100229.19;125539;1105;22762;-59
2021/05/20 00:43:11;;;;;;;13.20;4.30;;;;;;;8.15;75.06;100225.50;125526;1104;22781;-59
2021/05/20 00:45:40;;;;;;;16.88;4.60;;;;;;;8.15;74.68;100239.41;125508;1100;22744;-56
2021/05/20 00:48:11;;;;;;;16.58;5.20;;;;;;;8.18;75.40;100235.68;125511;1104;22868;-58
2021/05/20 00:50:41;;;;;;;12.80;4.35;;;;;;;8.20;75.50;100230.43;125647;1100;22774;-58
2021/05/20 00:53:13;;;;;;;11.73;4.15;;;;;;;8.22;75.21;100227.95;125528;1104;22748;-58
2021/05/20 00:55:44;;;;;;;13.00;4.67;;;;;;;8.25;75.67;100227.07;125494;1099;27158;-57
2021/05/20 00:58:15;;;;;;;13.10;4.87;;;;;;;8.29;75.66;100240.81;125631;1104;22780;-58
2021/05/20 01:00:46;;;;;;;15.73;4.70;;;;;;;8.33;75.67;100233.09;125455;1098;26146;-59
2021/05/20 01:03:16;;;;;;;14.43;5.00;;;;;;;8.38;75.84;100249.17;125707;1104;22906;-57
2021/05/20 01:05:47;;;;;;;13.93;5.05;;;;;;;8.37;75.92;100240.05;125466;1104;22781;-57
2021/05/20 01:08:17;;;;;;;12.60;4.30;;;;;;;8.39;75.96;100240.36;125471;1104;22881;-58
2021/05/20 01:10:47;;;;;;;12.08;3.58;;;;;;;8.40;76.15;100241.88;125616;1100;22841;-58
2021/05/20 01:13:17;;;;;;;10.90;4.00;;;;;;;8.41;76.27;100242.67;125427;1100;25858;-58
2021/05/20 01:15:47;;;;;;;9.40;3.25;;;;;;;8.38;76.38;100236.02;125400;1099;25979;-58
2021/05/20 01:18:17;;;;;;;14.53;4.03;;;;;;;8.38;76.23;100240.83;125506;1100;22759;-58
2021/05/20 01:20:48;;;;;;;9.75;3.60;;;;;;;8.37;76.50;100242.05;125614;1104;22760;-58
2021/05/20 01:23:21;;;;;;;13.73;3.40;;;;;;;8.34;76.67;100246.52;125443;1104;22793;-59
2021/05/20 01:25:51;;;;;;;11.70;3.80;;;;;;;8.32;76.78;100249.00;125548;1100;25887;-57
2021/05/20 01:28:25;;;;;;;12.38;3.75;;;;;;;8.31;77.10;100250.25;125374;1098;27190;-58
2021/05/20 01:30:58;;;;;;;12.40;4.00;;;;;;;8.30;77.23;100245.91;125375;1099;27610;-58
2021/05/20 01:33:29;;;;;;;11.50;3.83;;;;;;;8.29;77.38;100255.50;125456;1104;22764;-58
2021/05/20 01:35:59;;;;;;;13.90;4.07;;;;;;;8.31;77.66;100246.69;125533;1104;23206;-58
2021/05/20 01:41:16;;;;;;;11.80;3.55;;;;;;;8.30;77.61;100251.47;125422;1104;22884;-58
2021/05/20 01:43:48;;;;;;;11.93;3.75;;;;;;;8.29;77.56;100244.38;125489;1104;22838;-59
2021/05/20 01:46:19;;;;;;;11.73;3.30;;;;;;;8.28;77.73;100251.16;125497;1098;22785;-59
2021/05/20 01:48:49;;;;;;;13.10;3.60;;;;;;;8.29;77.64;100249.16;125523;1104;22957;-59
2021/05/20 01:51:20;;;;;;;12.48;2.95;;;;;;;8.26;77.67;100253.63;125537;1099;25886;-59
2021/05/20 01:53:53;;;;;;;9.87;3.47;;;;;;;8.26;77.31;100252.86;125747;1104;23778;-59
2021/05/20 01:56:24;;;;;;;11.77;3.40;;;;;;;8.23;77.45;100256.55;125519;1104;22784;-59
2021/05/20 01:58:55;;;;;;;14.40;3.80;;;;;;;8.20;77.50;100255.45;125645;1104;22791;-57
2021/05/20 02:01:25;;;;;;;12.17;3.73;;;;;;;8.16;77.42;100261.18;125472;1099;27694;-59
2021/05/20 02:03:56;;;;;;;10.37;3.40;;;;;;;8.11;77.60;100253.44;125599;1098;27157;-59
2021/05/20 02:06:26;;;;;;;11.98;3.78;;;;;;;8.08;77.68;100261.94;125354;1104;22831;-59
2021/05/20 02:08:57;;;;;;;10.40;3.80;;;;;;;8.04;77.41;100261.31;125492;1104;22783;-59
2021/05/20 02:11:27;;;;;;;11.50;3.97;;;;;;;8.00;77.42;100255.13;125467;1104;24457;-59
2021/05/20 02:13:56;;;;;;;12.43;4.03;;;;;;;7.96;77.56;100258.07;125513;1104;22835;-59
2021/05/20 02:16:26;;;;;;;11.63;3.38;;;;;;;7.91;77.63;100263.45;125475;1105;22760;-59
2021/05/20 02:18:59;;;;;;;9.97;3.53;;;;;;;7.88;77.69;100265.13;125572;1105;22784;-59
2021/05/20 02:21:28;;;;;;;11.03;3.60;;;;;;;7.84;77.66;100264.51;125675;1099;25887;-58
2021/05/20 02:23:58;;;;;;;11.50;4.17;;;;;;;7.83;77.77;100267.75;125471;1099;28650;-59
2021/05/20 02:26:28;;;;;;;11.10;3.20;;;;;;;7.81;77.61;100270.22;125434;1099;22777;-60
2021/05/20 02:28:59;;;;;;;14.83;3.40;;;;;;;7.78;77.75;100268.38;125463;1104;22781;-58
2021/05/20 02:31:29;;;;;;;10.70;3.23;;;;;;;7.75;77.71;100272.06;125513;1104;22780;-61
2021/05/20 02:33:58;;;;;;;;;;;;;;;7.72;77.78;100270.97;125443;1104;22760;-59
2021/05/20 02:36:28;;;;;;;9.47;2.63;;;;;;;7.71;77.88;100268.66;125781;1100;24598;-60
2021/05/20 02:38:58;;;;;;;10.90;3.95;;;;;;;7.70;77.87;100270.66;125456;1104;22838;-58
2021/05/20 02:41:28;;;;;;;;;;;;;;;7.69;77.96;100271.12;125626;1104;25422;-61
2021/05/20 02:43:57;;;;;;;10.40;2.90;;;;;;;7.67;78.02;100270.80;125392;1104;21605;-58
2021/05/20 02:46:27;;;;;;;12.53;3.28;;;;;;;7.66;78.02;100272.02;125398;1104;22790;-59
2021/05/20 02:48:57;;;;;;;15.38;3.75;;;;;;;7.64;78.00;100266.15;125506;1104;25577;-60
2021/05/20 02:51:27;;;;;;;8.90;2.55;;;;;;;7.63;78.25;100270.95;125429;1104;24176;-58
2021/05/20 02:53:57;;;;;;;9.53;3.05;;;;;;;7.62;78.38;100274.95;125477;1099;25820;-59
2021/05/20 02:56:26;;;;;;;9.38;2.78;;;;;;;7.61;78.20;100275.42;125424;1099;27155;-58
2021/05/20 02:58:57;;;;;;;13.38;3.18;;;;;;;7.61;78.69;100286.53;125414;1104;22759;-58
2021/05/20 03:01:27;;;;;;;9.50;2.38;;;;;;;7.59;78.93;100291.77;125517;1104;22839;-59
2021/05/20 03:03:57;;;;;;;11.15;3.55;;;;;;;7.57;78.67;100291.45;125489;1105;22757;-59
2021/05/20 03:06:26;;;;;;;10.60;3.50;;;;;;;7.58;78.72;100290.21;125374;1104;25593;-59
2021/05/20 03:08:57;;;;;;;8.03;2.65;;;;;;;7.60;78.59;100287.75;125404;1104;22780;-59
2021/05/20 03:11:27;;;;;;;;;;;;;;;7.60;79.01;100291.31;125485;1104;22763;-59
2021/05/20 03:13:56;;;;;;;;;;;;;;;7.60;78.90;100294.09;125488;1104;24208;-59
2021/05/20 03:16:26;;;;;;;10.50;3.05;;;;;;;7.61;78.85;100295.64;125398;1104;21590;-59
2021/05/20 03:21:33;;;;;;;11.07;3.77;;;;;;;7.64;78.94;100310.61;125674;1093;22774;-61
2021/05/20 03:24:02;;;;;;;;;;;;;;;7.67;78.87;100309.70;125636;1104;22831;-61
2021/05/20 03:26:33;;;;;;;12.17;4.00;;;;;;;7.68;78.89;100308.45;125550;1100;21478;-61
2021/05/20 03:29:04;;;;;;;11.80;3.13;;;;;;;7.68;78.98;100305.68;125562;1105;22767;-61
2021/05/20 03:31:34;;;;;;;10.10;3.23;;;;;;;7.67;78.60;100310.48;126179;1099;27584;-61
2021/05/20 03:34:04;;;;;;;10.75;3.88;;;;;;;7.68;78.88;100300.13;125532;1104;22748;-61
2021/05/20 03:36:34;;;;;;;12.33;3.55;;;;;;;7.70;78.72;100301.22;125877;1105;22816;-61
2021/05/20 03:39:05;;;;;;;9.68;3.30;;;;;;;7.71;79.02;100304.78;125418;1104;22760;-62
2021/05/20 03:41:34;;;;;;;13.03;4.23;;;;;;;7.70;78.79;100309.55;126409;1104;22892;-60
2021/05/20 03:44:06;;;;;;;18.38;6.28;;;;;;;7.69;78.87;100312.80;125531;1105;22830;-61
2021/05/20 03:46:36;;;;;;;16.87;5.07;;;;;;;7.69;78.95;100312.80;125664;1104;22825;-61
2021/05/20 03:49:06;;;;;;;10.13;3.30;;;;;;;7.71;79.16;100321.45;125513;1104;22803;-61
2021/05/20 03:51:36;;;;;;;11.80;3.63;;;;;;;7.66;79.09;100316.48;125456;1105;22841;-61
2021/05/20 03:54:08;;;;;;;11.93;3.53;;;;;;;7.65;79.28;100315.73;125467;1104;22897;-61
2021/05/20 03:56:38;;;;;;;11.20;3.33;;;;;;;7.65;79.39;100312.16;125533;1105;22881;-61
2021/05/20 03:59:08;;;;;;;11.70;3.67;;;;;;;7.66;79.39;100310.92;125483;1104;22751;-61
2021/05/20 04:01:40;;;;;;;11.18;4.03;;;;;;;7.68;79.44;100312.02;125543;1099;27128;-61
2021/05/20 04:04:13;;;;;;;12.10;4.03;;;;;;;7.71;79.54;100319.45;125700;1104;22838;-61
2021/05/20 04:06:43;;;;;;;13.50;4.23;;;;;;;7.74;79.44;100317.77;125538;1100;26197;-61
2021/05/20 04:09:13;;;;;;;14.47;4.40;;;;;;;7.76;79.69;100323.64;125504;1100;26264;-61
2021/05/20 04:11:42;;;;;;;;;;;;;;;7.79;79.58;100325.48;125545;1105;25401;-60
2021/05/20 04:14:13;;;;;;;9.97;3.13;;;;;;;7.80;79.82;100327.05;125599;1100;24528;-61
2021/05/20 04:16:44;;;;;;;9.80;2.73;;;;;;;7.81;79.67;100323.80;125496;1100;22784;-61
2021/05/20 04:19:15;;;;;;;14.43;4.33;;;;;;;7.85;79.57;100324.44;125603;1099;25851;-62
2021/05/20 04:21:46;;;;;;;13.10;3.87;;;;;;;7.87;79.75;100343.42;125655;1104;22750;-61
2021/05/20 04:24:16;;;;;;;15.15;4.25;;;;;;;7.90;79.80;100334.19;125446;1104;22768;-61
2021/05/20 04:26:46;;;;;;;12.95;4.13;;;;;;;7.93;79.75;100328.47;125492;1104;22759;-61
2021/05/20 04:29:16;;;;;;;11.53;3.80;;;;;;;7.96;79.87;100338.69;125532;1104;22821;-61
2021/05/20 04:31:45;;;;;;;15.13;4.25;;;;;;;7.98;79.61;100336.22;125476;1104;22755;-61
2021/05/20 04:34:15;;;;;;;9.30;2.95;;;;;;;8.00;79.58;100341.31;125474;1100;27129;-63
2021/05/20 04:36:45;;;;;;;11.87;4.40;;;;;;;8.00;79.81;100342.09;125524;1104;22744;-63
2021/05/20 04:39:15;;;;;;;;;;;;;;;7.98;79.71;100338.22;125494;1104;22849;-63
2021/05/20 04:41:45;;;;;;;12.00;3.77;;;;;;;7.95;79.86;100350.24;125612;1104;21503;-63
2021/05/20 04:44:14;;;;;;;14.95;5.08;;;;;;;7.94;79.81;100343.94;125463;1104;24757;-63
2021/05/20 04:46:44;;;;;;;9.58;3.53;;;;;;;7.96;80.04;100346.25;125632;1104;22732;-63
2021/05/20 04:49:14;;;;;;;14.53;4.90;;;;;;;8.00;80.13;100344.09;125602;1100;22801;-63
2021/05/20 04:51:44;;;;;;;13.15;4.50;;;;;;;8.04;80.11;100351.06;125503;1099;22770;-63
2021/05/20 04:54:14;;;;;;;10.87;4.20;;;;;;;8.09;80.28;100346.88;125559;1099;22763;-60
2021/05/20 04:56:44;;;;;;;13.70;4.75;;;;;;;8.14;80.25;100346.29;125432;1100;22768;-61
2021/05/20 04:59:14;;;;;;;11.83;4.13;;;;;;;8.20;79.90;100347.23;125319;1104;23019;-60
2021/05/20 05:01:44;;;;;;;13.37;4.63;;;;;;;8.27;80.28;100349.76;125521;1104;22750;-60
2021/05/20 05:04:14;;;;;;;14.85;4.55;;;;;;;8.34;80.35;100354.25;125697;1104;22747;-59
2021/05/20 05:06:43;;;;;;;14.18;4.65;;;;;;;8.41;80.25;100354.72;125521;1104;22745;-60
2021/05/20 05:09:13;;;;;;;15.23;5.28;;;;;;;8.49;80.18;100344.84;125529;1104;22980;-60
2021/05/20 05:11:43;;;;;;;15.80;4.97;;;;;;;8.61;80.25;100351.48;125451;1099;27262;-60
2021/05/20 05:14:13;;;;;;;16.40;5.40;;;;;;;8.70;80.28;100355.06;125494;1098;27768;-60
2021/05/20 05:16:43;;;;;;;12.50;4.35;;;;;;;8.80;79.92;100353.82;125522;1100;24486;-60
2021/05/20 05:19:13;;;;;;;14.80;5.48;;;;;;;8.90;79.86;100357.36;125578;1104;22744;-60
2021/05/20 05:21:43;;;;;;;14.03;4.88;;;;;;;9.00;79.95;100353.33;125568;1104;22802;-60
2021/05/20 05:24:13;;;;;;;15.35;4.70;;;;;;;9.11;79.97;100355.64;125437;1099;27319;-60
2021/05/20 05:26:44;;;;;;;11.83;4.40;;;;;;;9.22;79.74;100351.16;125438;1099;27257;-60
2021/05/20 05:29:14;;;;;;;14.80;5.23;;;;;;;9.32;79.60;100352.67;125447;1104;22777;-60
2021/05/20 05:31:44;;;;;;;14.15;4.53;;;;;;;9.45;79.65;100352.49;125485;1104;22774;-60
2021/05/20 05:34:13;;;;;;;14.93;4.40;;;;;;;9.56;79.58;100356.31;125389;1098;27163;-60
2021/05/20 05:36:44;;;;;;;14.00;4.45;;;;;;;9.67;78.95;100358.61;125481;1099;22923;-61
2021/05/20 05:39:13;;;;;;;12.33;4.45;;;;;;;9.74;78.68;100355.50;125429;1104;22781;-60
2021/05/20 05:41:43;;;;;;;11.18;4.33;;;;;;;9.80;78.30;100364.77;125554;1104;23045;-60
2021/05/20 05:44:13;;;;;;;15.45;4.43;;;;;;;9.88;78.61;100359.61;125554;1100;24411;-60
2021/05/20 05:46:43;;;;;;;13.53;4.87;;;;;;;9.96;78.52;100363.59;125506;1104;22804;-61
2021/05/20 05:49:15;;;;;;;13.00;4.15;;;;;;;10.03;78.54;100366.84;125432;1104;22907;-61
2021/05/20 05:51:47;;;;;;;13.30;4.53;;;;;;;10.13;78.63;100367.58;126112;1104;24410;-62
2021/05/20 05:54:17;;;;;;;12.40;4.37;;;;;;;10.23;77.99;100369.07;125593;1100;23313;-61
2021/05/20 05:56:48;;;;;;;10.40;4.30;;;;;;;10.30;77.62;100372.30;125452;1099;27211;-60
2021/05/20 05:59:17;;;;;;;;;;;;;;;10.34;77.40;100378.48;125493;1104;22800;-61
2021/05/20 06:01:47;;;;;;;11.13;3.23;;;;;;;10.38;77.23;100370.70;125494;1104;21478;-60
2021/05/20 06:04:18;;;;;;;10.73;3.57;;;;;;;10.45;77.58;100377.92;125474;1098;27163;-60
2021/05/20 06:06:48;;;;;;;11.73;4.10;;;;;;;10.54;77.13;100383.45;125511;1104;22753;-60
2021/05/20 06:09:18;;;;;;;13.90;4.67;;;;;;;10.62;77.30;100381.07;125504;1099;26063;-61
2021/05/20 06:11:48;;;;;;;16.50;5.10;;;;;;;10.72;77.62;100383.32;125521;1104;22794;-61
2021/05/20 06:14:18;;;;;;;11.03;3.98;;;;;;;10.83;76.87;100377.19;125695;1100;25462;-61
2021/05/20 06:16:47;;;;;;;;;;;;;;;10.94;76.65;100381.00;125615;1100;27584;-60
2021/05/20 06:19:17;;;;;;;13.47;3.73;;;;;;;11.00;76.39;100381.09;125500;1098;26597;-61
2021/05/20 06:21:49;;;;;;;11.37;3.97;;;;;;;11.04;76.52;100387.27;125588;1105;22925;-60
2021/05/20 06:24:19;;;;;;;11.17;3.43;;;;;;;11.08;75.78;100383.04;125503;1104;22787;-60
2021/05/20 06:26:49;;;;;;;10.00;3.58;;;;;;;11.20;76.18;100393.17;125491;1104;22754;-61
2021/05/20 06:29:20;;;;;;;11.40;3.47;;;;;;;11.28;76.00;100393.56;125562;1099;25922;-60
2021/05/20 06:31:49;;;;;;;10.70;4.03;;;;;;;11.35;75.85;100390.39;125561;1104;24449;-61
2021/05/20 06:34:19;;;;;;;11.30;4.05;;;;;;;11.42;75.89;100386.45;125628;1105;22794;-60
2021/05/20 06:36:49;;;;;;;11.23;3.43;;;;;;;11.50;75.34;100391.19;125545;1104;23071;-61
2021/05/20 06:39:19;;;;;;;11.23;3.10;;;;;;;11.55;75.04;100395.30;125691;1104;25574;-61
2021/05/20 06:41:50;;;;;;;8.43;2.83;;;;;;;11.60;75.12;100398.22;125525;1104;23069;-60
2021/05/20 06:44:20;;;;;;;9.25;3.63;;;;;;;11.63;74.71;100400.03;125877;1104;22768;-61
2021/05/20 06:46:50;;;;;;;11.17;3.70;;;;;;;11.72;74.93;100397.18;125631;1104;22832;-60
2021/05/20 06:49:20;;;;;;;11.57;2.73;;;;;;;11.83;74.75;100399.39;125694;1099;22778;-61
2021/05/20 06:51:50;;;;;;;11.57;3.53;;;;;;;11.93;74.74;100395.23;125514;1104;23521;-60
2021/05/20 06:54:20;;;;;;;10.95;2.80;;;;;;;12.01;73.84;100399.95;125587;1104;22731;-60
2021/05/20 06:56:53;;;;;;;10.68;2.85;;;;;;;12.09;73.86;100405.91;125531;1104;22754;-60
2021/05/20 07:02:11;;;;;;;9.57;3.10;;;;;;;12.19;73.74;100401.73;125387;1104;22776;-61
2021/05/20 07:04:40;;;;;;;12.18;2.75;;;;;;;12.27;73.73;100405.66;125475;1104;24416;-60
2021/05/20 07:07:11;;;;;;;9.73;3.40;;;;;;;12.43;73.37;100402.35;125453;1104;22753;-60
2021/05/20 07:09:42;;;;;;;11.28;3.05;;;;;;;12.52;72.99;100395.86;125760;1100;26200;-61
2021/05/20 07:12:13;;;;;;;9.97;2.73;;;;;;;12.60;72.51;100400.52;125493;1099;27160;-61
2021/05/20 07:14:44;;;;;;;8.60;2.70;;;;;;;12.71;72.15;100403.48;125583;1098;22886;-63
2021/05/20 07:17:13;;;;;;;8.27;2.10;;;;;;;12.78;70.51;100400.27;125337;1099;25944;-61
2021/05/20 07:19:44;;;;;;;7.53;2.00;;;;;;;12.78;71.54;100402.30;125489;1100;22744;-60
2021/05/20 07:22:13;;;;;;;;;;;;;;;12.83;71.38;100404.38;125613;1104;22759;-60
2021/05/20 07:24:44;;;;;;;9.43;2.43;;;;;;;12.89;70.81;100405.25;125475;1104;23131;-60
2021/05/20 07:27:16;;;;;;;9.20;3.00;;;;;;;12.92;71.20;100404.25;125182;1100;113943;-64
2021/05/20 07:29:45;;;;;;;7.65;2.00;;;;;;;12.97;70.87;100398.70;125295;1104;22891;-61
2021/05/20 07:32:18;;;;;;;8.73;2.60;;;;;;;13.03;70.85;100393.93;125239;1099;22750;-61
2021/05/20 07:34:49;;;;;;;7.15;1.90;;;;;;;13.12;70.70;100398.65;125484;1098;22764;-61
2021/05/20 07:37:18;;;;;;;8.08;1.80;;;;;;;13.24;70.53;100399.55;125345;1104;22775;-60
2021/05/20 07:39:48;;;;;;;5.40;1.68;;;;;;;13.31;69.75;100399.10;125360;1099;26519;-61
2021/05/20 07:42:18;;;;;;;6.15;1.60;;;;;;;13.39;68.53;100394.59;125386;1104;23189;-61
2021/05/20 07:44:54;;;;;;;9.55;1.90;;;;;;;13.45;68.77;100392.64;125402;1104;22760;-61
2021/05/20 07:47:24;;;;;;;9.83;1.67;;;;;;;13.48;68.93;100394.44;125425;1104;22909;-61
2021/05/20 07:49:54;;;;;;;8.55;1.63;;;;;;;13.54;68.67;100393.23;125649;1104;22747;-61
2021/05/20 07:52:27;;;;;;;3.30;1.20;;;;;;;13.64;67.03;100393.81;125497;1105;22766;-61
2021/05/20 07:54:59;;;;;;;8.35;1.50;;;;;;;13.72;67.11;100392.88;125361;1104;22744;-60
2021/05/20 07:57:31;;;;;;;4.45;1.30;;;;;;;13.78;66.46;100388.08;125344;1104;22778;-61
2021/05/20 08:00:01;;;;;;;5.55;1.30;;;;;;;13.87;66.68;100386.36;125293;1104;22803;-61
2021/05/20 08:02:37;;;;;;;5.73;1.50;;;;;;;13.97;66.01;100385.67;125371;1104;22823;-60
2021/05/20 08:05:12;;;;;;;5.90;1.20;;;;;;;14.02;66.24;100389.80;125818;1100;26190;-60
2021/05/20 08:07:49;;;;;;;3.60;0.98;;;;;;;14.14;65.82;100385.80;125673;1104;22777;-60
2021/05/20 08:10:44;;;;;;;5.17;1.00;;;;;;;14.18;64.50;100386.34;125321;1104;23532;-60
2021/05/20 08:13:14;;;;;;;3.90;1.10;;;;;;;14.26;65.07;100395.83;125337;1099;28375;-61
2021/05/20 08:15:46;;;;;;;4.18;1.10;;;;;;;14.36;64.66;100392.35;125332;1100;26194;-62
2021/05/20 08:18:17;;;;;;;6.15;0.95;;;;;;;14.45;63.78;100392.16;125349;1104;24461;-61
2021/05/20 08:20:48;;;;;;;4.95;0.90;;;;;;;14.50;62.95;100390.66;125484;1098;25835;-61
2021/05/20 08:23:18;;;;;;;4.37;0.80;;;;;;;14.51;62.74;100389.38;125257;1104;22781;-61
2021/05/20 08:25:49;;;;;;;2.93;0.60;;;;;;;14.54;61.40;100389.16;125524;1104;22836;-60
2021/05/20 08:28:19;;;;;;;3.60;0.85;;;;;;;14.61;61.37;100393.52;125650;1104;30501;-60
2021/05/20 08:30:48;;;;;;;;;;;;;;;14.69;62.44;100385.39;125317;1104;22768;-61
2021/05/20 08:33:18;;;;;;;2.35;0.60;;;;;;;14.78;61.12;100394.36;125545;1104;23373;-60
2021/05/20 08:35:48;;;;;;;;;;;;;;;14.81;60.89;100390.56;125515;1104;22892;-60
2021/05/20 08:38:18;;;;;;;4.25;0.75;;;;;;;14.83;60.71;100390.82;125374;1104;21480;-60
2021/05/20 08:40:48;;;;;;;3.35;0.90;;;;;;;14.89;60.57;100396.45;125384;1104;22850;-61
2021/05/20 08:43:18;;;;;;;4.83;0.70;;;;;;;14.99;59.61;100392.14;125345;1104;22828;-61
2021/05/20 08:45:49;;;;;;;3.38;1.00;;;;;;;15.03;59.22;100398.30;125640;1104;22779;-60
2021/05/20 08:48:19;;;;;;;3.50;0.80;;;;;;;15.04;58.99;100397.78;125469;1104;22832;-61
2021/05/20 08:50:49;;;;;;;3.48;0.90;;;;;;;15.11;59.56;100394.48;125480;1098;26219;-60
2021/05/20 08:53:19;;;;;;;;;;;;;;;15.13;59.49;100393.97;125540;1104;22835;-61
2021/05/20 08:55:49;;;;;;;2.55;0.70;;;;;;;15.24;58.99;100391.20;125648;1099;24489;-61
2021/05/20 08:58:24;;;;;;;3.20;0.90;;;;;;;15.35;57.80;100399.68;125612;1098;25973;-61
2021/05/20 09:00:56;;;;;;;3.75;0.80;;;;;;;15.35;58.27;100394.80;125446;1104;22910;-61
2021/05/20 09:03:26;;;;;;;4.80;0.70;;;;;;;15.45;57.67;100395.38;125438;1100;26666;-60
2021/05/20 09:06:04;;;;;;;2.53;0.70;;;;;;;15.53;57.28;100392.81;125771;1099;25896;-61
2021/05/20 09:08:35;;;;;;;3.25;1.00;;;;;;;15.60;57.92;100390.26;125512;1104;22915;-61
2021/05/20 09:11:05;;;;;;;6.60;0.90;;;;;;;15.65;55.64;100402.80;125602;1104;22867;-61
2021/05/20 09:13:39;;;;;;;3.13;0.70;;;;;;;15.70;56.63;100396.42;125489;1104;22794;-61
2021/05/20 09:16:15;;;;;;;6.07;1.10;;;;;;;15.82;56.10;100389.52;125802;1104;22786;-60
2021/05/20 09:18:45;;;;;;;4.45;0.90;;;;;;;15.75;55.11;100393.60;125473;1104;22905;-60
2021/05/20 09:21:15;;;;;;;7.05;2.20;;;;;;;15.70;57.36;100393.61;125391;1104;22753;-60
2021/05/20 09:23:49;;;;;;;8.25;2.10;;;;;;;15.59;58.00;100394.36;126369;1100;26508;-61
2021/05/20 09:26:32;;;;;;;10.07;2.17;;;;;;;15.54;58.45;100400.00;125291;1104;22774;-61
2021/05/20 09:29:10;;;;;;;9.60;2.80;;;;;;;15.41;60.08;100401.20;126246;1104;78384;-61
2021/05/20 09:31:43;;;;;;;7.50;1.80;;;;;;;15.25;60.08;100401.94;125726;1104;22773;-62
2021/05/20 09:34:17;;;;;;;4.65;1.30;;;;;;;15.16;59.26;100405.00;126088;1100;27135;-61
2021/05/20 09:36:51;;;;;;;5.50;1.20;;;;;;;15.05;58.25;100402.14;125420;1104;22764;-61
2021/05/20 09:39:21;;;;;;;3.50;1.20;;;;;;;15.03;59.28;100393.45;125289;1104;22780;-61
2021/05/20 09:42:20;;;;;;;3.53;1.13;;;;;;;15.16;58.71;100390.94;125438;1104;22776;-61
2021/05/20 09:44:50;;;;;;;6.30;1.50;;;;;;;15.37;58.84;100386.62;125640;1099;27313;-61
2021/05/20 09:47:20;;;;;;;3.68;1.30;;;;;;;15.48;58.67;100385.16;125446;1104;22778;-61
2021/05/20 09:49:59;;;;;;;6.23;1.30;;;;;;;15.63;58.02;100380.81;125335;1104;22777;-61
2021/05/20 09:52:29;;;;;;;3.95;1.00;;;;;;;15.74;55.40;100380.83;125407;1100;26201;-61
2021/05/20 09:55:00;;;;;;;3.45;1.00;;;;;;;15.75;56.67;100378.75;125743;1100;22794;-62
2021/05/20 09:57:33;;;;;;;;;;;;;;;15.69;55.77;100381.58;125445;1104;22813;-61
2021/05/20 10:00:08;;;;;;;3.60;0.75;;;;;;;15.65;56.09;100375.44;125391;1104;21477;-61
2021/05/20 10:02:40;;;;;;;3.20;0.70;;;;;;;15.73;55.67;100370.05;125374;1104;22774;-62
2021/05/20 10:05:28;;;;;;;3.90;0.95;;;;;;;15.85;54.90;100372.36;125852;1104;25561;-62
2021/05/20 10:08:00;;;;;;;3.40;1.10;;;;;;;15.97;55.83;100368.25;125404;1104;22777;-62
2021/05/20 10:10:33;;;;;;;5.60;1.15;;;;;;;16.05;55.19;100365.70;125580;1104;22894;-62
2021/05/20 10:13:06;;;;;;;3.55;1.05;;;;;;;16.07;54.42;100366.73;125469;1104;22771;-61
2021/05/20 10:15:37;;;;;;;4.90;0.95;;;;;;;16.01;54.89;100368.79;125743;1104;22835;-62
2021/05/20 10:18:09;;;;;;;3.90;0.85;;;;;;;15.96;54.28;100382.85;125864;1104;22745;-62
2021/05/20 10:20:45;;;;;;;6.10;1.10;;;;;;;15.87;54.09;100386.69;125706;1104;22784;-62
2021/05/20 10:23:17;;;;;;;5.73;1.10;;;;;;;15.73;54.68;100379.27;125469;1099;22751;-62
2021/05/20 10:25:48;;;;;;;6.00;1.10;;;;;;;15.62;54.03;100384.89;125336;1098;27400;-62
2021/05/20 10:28:19;;;;;;;2.77;0.90;;;;;;;15.49;53.88;100379.01;125966;1100;48195;-62
2021/05/20 10:30:51;;;;;;;10.23;1.60;;;;;;;15.38;55.46;100373.33;125438;1104;22764;-62
2021/05/20 10:33:29;;;;;;;8.85;1.30;;;;;;;15.28;55.41;100372.81;125741;1098;25855;-61
2021/05/20 10:36:01;;;;;;;4.45;1.40;;;;;;;15.20;55.39;100373.81;125531;1104;22760;-62
2021/05/20 10:38:39;;;;;;;7.80;1.60;;;;;;;15.18;56.07;100367.92;125447;1098;26191;-61
2021/05/20 10:41:12;;;;;;;5.10;1.20;;;;;;;15.18;56.25;100367.92;125607;1104;22916;-61
2021/05/20 10:43:43;;;;;;;8.20;1.40;;;;;;;15.26;56.65;100366.92;125339;1099;27151;-62
2021/05/20 10:46:15;;;;;;;7.35;1.50;;;;;;;15.41;55.84;100361.81;125552;1104;23460;-62
2021/05/20 10:48:51;;;;;;;5.63;1.50;;;;;;;15.53;55.15;100361.87;125413;1104;22809;-62
2021/05/20 10:51:23;;;;;;;4.73;1.33;;;;;;;15.62;55.44;100367.26;125434;1104;22804;-62
2021/05/20 10:54:10;;;;;;;5.77;1.27;;;;;;;15.77;55.66;100362.13;125561;1098;26298;-61
2021/05/20 10:56:55;;;;;;;8.60;1.50;;;;;;;15.99;54.47;100360.06;125849;1104;22740;-62
2021/05/20 10:59:43;;;;;;;4.40;1.40;;;;;;;16.19;54.67;100359.02;125534;1104;22750;-62
2021/05/20 11:02:17;;;;;;;8.60;1.30;;;;;;;16.28;54.31;100357.98;125489;1104;22751;-61
2021/05/20 11:04:48;;;;;;;6.90;1.30;;;;;;;16.34;54.66;100365.14;125484;1104;23293;-62
2021/05/20 11:07:30;;;;;;;;;;;;;;;16.36;54.20;100371.03;125407;1099;26834;-62
2021/05/20 11:10:11;;;;;;;7.80;1.30;;;;;;;16.35;54.30;100366.66;125398;1104;21468;-61
2021/05/20 11:15:37;;;;;;;8.80;1.70;;;;;;;16.60;54.13;100359.96;125985;1088;22867;-61
2021/05/20 11:18:34;;;;;;;4.53;1.40;;;;;;;16.69;53.71;100370.18;125679;1101;22745;-61
2021/05/20 11:21:04;;;;;;;3.90;1.20;;;;;;;16.67;54.12;100367.89;125840;1101;22742;-61
2021/05/20 11:23:36;;;;;;;;;;;;;;;16.56;53.84;100367.14;126220;1101;22873;-61
2021/05/20 11:26:22;;;;;;;7.50;1.00;;;;;;;16.49;54.96;100362.80;125848;1101;21636;-61
2021/05/20 11:29:09;;;;;;;3.15;1.10;;;;;;;16.49;54.88;100350.75;125672;1101;29221;-62
2021/05/20 11:31:42;;;;;;;6.13;1.03;;;;;;;16.51;55.25;100360.23;125780;1104;22740;-63
2021/05/20 11:37:03;;;;;;;4.63;1.10;;;;;;;16.50;55.81;100361.53;125360;1104;22758;-62
2021/05/20 11:39:32;;;;;;;;;;;;;;;16.55;55.45;100366.37;125968;1104;22872;-62
2021/05/20 11:42:04;;;;;;;5.90;0.60;;;;;;;16.50;53.28;100366.39;125400;1104;22299;-62
2021/05/20 11:44:34;;;;;;;2.93;0.60;;;;;;;16.36;52.49;100373.07;125391;1099;26327;-62
2021/05/20 11:47:08;;;;;;;3.97;0.70;;;;;;;16.13;53.34;100375.16;125448;1104;22722;-62
2021/05/20 11:49:39;;;;;;;2.57;0.70;;;;;;;15.94;53.35;100366.48;125696;1104;23194;-62
2021/05/20 11:52:10;;;;;;;2.55;0.60;;;;;;;15.89;53.11;100366.49;125416;1104;22734;-62
2021/05/20 11:54:42;;;;;;;1.70;0.50;;;;;;;15.83;52.80;100385.44;125553;1104;22734;-62